Aledo, Illinois
Current Conditions -  °F | °C
As of 6:52 AM on Friday 24 Oct 2014 (Local Time) from KMLI Reporting Station
Haze Haze  
Wind Chill: 50°   Ceiling: 200
Heat Index: 50°   Visibility: 0.75mi
Dew Point: 49°   Wind: 3mph
Humidity: 96%   Direction: 90°E
Pressure: 30.05"   Gusts: NA
Location:  41.2°N, 90.75°W
Report Text: KMLI 241152Z 09003KT 3/4SM R09/4500V5500FT BR OVC002 10/09 A3005 RMK AO2 SLP176 T01000094 10100 20044 58003
Loading
Personal Weather Stations






























Interactive Weather Map
Tropical Storm Tracking
New forecast layout! Learn more

10-Day Weather Forecast

Advertisements
Track Severe Weather on mobile